createdAt,value
2023-05-22T00:00:20.988Z,23.75
2023-05-22T00:02:48.609Z,26.85
2023-05-22T00:05:15.710Z,26.55
2023-05-22T00:07:43.430Z,24.48
2023-05-22T00:10:10.985Z,23.58
2023-05-22T00:12:38.135Z,23.05
2023-05-22T00:15:06.185Z,27.50
2023-05-22T00:17:34.200Z,25.73
2023-05-22T00:20:08.280Z,24.67
2023-05-22T00:22:38.313Z,24.92
2023-05-22T00:25:06.864Z,32.95
2023-05-22T00:27:34.609Z,28.63
2023-05-22T00:30:01.737Z,27.63
2023-05-22T00:32:30.363Z,29.13
2023-05-22T00:34:57.381Z,26.23
2023-05-22T00:37:25.505Z,31.60
2023-05-22T00:39:52.498Z,32.75
2023-05-22T00:42:19.822Z,34.78
2023-05-22T00:44:48.298Z,26.40
2023-05-22T00:47:15.349Z,31.98
2023-05-22T00:49:43.547Z,32.50
2023-05-22T00:52:13.004Z,36.70
2023-05-22T00:54:40.150Z,31.98
2023-05-22T00:57:07.353Z,32.63
2023-05-22T00:59:35.493Z,29.75
2023-05-22T01:02:03.158Z,32.65
2023-05-22T01:04:33.233Z,29.95
2023-05-22T01:07:02.897Z,26.77
2023-05-22T01:09:30.408Z,29.58
2023-05-22T01:12:06.566Z,34.33
2023-05-22T01:15:01.114Z,26.73
2023-05-22T01:17:37.467Z,28.40
2023-05-22T01:20:35.402Z,29.85
2023-05-22T01:23:08.880Z,31.80
2023-05-22T01:25:38.792Z,27.25
2023-05-22T01:28:23.835Z,28.52
2023-05-22T01:31:13.377Z,25.60
2023-05-22T01:33:49.189Z,30.60
2023-05-22T01:36:22.398Z,28.10
2023-05-22T01:38:51.361Z,24.33
2023-05-22T01:41:19.279Z,31.85
2023-05-22T01:43:47.865Z,28.05
2023-05-22T01:46:14.835Z,34.75
2023-05-22T01:48:43.015Z,33.13
2023-05-22T01:51:21.070Z,30.65
2023-05-22T01:53:58.047Z,27.52
2023-05-22T01:56:34.830Z,32.47
2023-05-22T01:59:15.152Z,35.78
2023-05-22T02:01:43.390Z,29.33
2023-05-22T02:04:11.418Z,27.48
2023-05-22T02:06:39.120Z,33.35
2023-05-22T02:09:07.164Z,32.85
2023-05-22T02:11:39.422Z,34.95
2023-05-22T02:14:08.759Z,33.25
2023-05-22T02:16:35.842Z,32.97
2023-05-22T02:19:08.648Z,37.33
2023-05-22T02:21:36.509Z,37.25
2023-05-22T02:24:03.917Z,37.90
2023-05-22T02:26:30.950Z,32.75
2023-05-22T02:28:59.226Z,32.03
2023-05-22T02:31:26.528Z,37.70
2023-05-22T02:33:53.583Z,41.33
2023-05-22T02:36:20.756Z,34.63
2023-05-22T02:38:48.201Z,33.85
2023-05-22T02:41:15.320Z,38.42
2023-05-22T02:43:42.251Z,35.33
2023-05-22T02:46:09.280Z,40.10
2023-05-22T02:48:37.119Z,38.28
2023-05-22T02:51:04.313Z,38.88
2023-05-22T02:53:31.940Z,37.20
2023-05-22T02:55:59.171Z,40.20
2023-05-22T02:58:26.210Z,44.28
2023-05-22T03:00:53.740Z,41.90
2023-05-22T03:03:20.896Z,48.47
2023-05-22T03:05:48.160Z,49.70
2023-05-22T03:08:16.072Z,46.47
2023-05-22T03:10:43.069Z,48.55
2023-05-22T03:13:10.017Z,51.78
2023-05-22T03:15:37.082Z,52.28
2023-05-22T03:18:11.744Z,61.05
2023-05-22T03:20:40.112Z,58.30
2023-05-22T03:23:07.383Z,58.42
2023-05-22T03:25:34.798Z,62.08
2023-05-22T03:28:02.727Z,54.42
2023-05-22T03:30:34.099Z,60.55
2023-05-22T03:33:11.737Z,60.15
2023-05-22T03:35:39.676Z,60.08
2023-05-22T03:38:06.689Z,63.47
2023-05-22T03:40:34.035Z,58.10
2023-05-22T03:43:01.080Z,66.07
2023-05-22T03:45:28.343Z,65.10
2023-05-22T03:47:55.527Z,67.40
2023-05-22T03:50:24.232Z,66.82
2023-05-22T03:52:51.168Z,59.42
2023-05-22T03:55:18.228Z,68.28
2023-05-22T03:57:45.246Z,62.33
2023-05-22T04:00:13.629Z,75.03
2023-05-22T04:02:45.134Z,73.35
2023-05-22T04:05:13.173Z,80.55
2023-05-22T04:07:40.189Z,66.13
2023-05-22T04:10:07.880Z,74.57
2023-05-22T04:12:35.093Z,80.53
2023-05-22T04:15:02.234Z,80.88
2023-05-22T04:17:33.832Z,77.63
2023-05-22T04:20:01.022Z,82.80
2023-05-22T04:22:28.051Z,83.78
2023-05-22T04:24:55.006Z,77.82
2023-05-22T04:27:22.720Z,76.20
2023-05-22T04:29:52.519Z,81.28
2023-05-22T04:32:21.729Z,89.30
2023-05-22T04:34:52.560Z,84.53
2023-05-22T04:37:20.473Z,82.22
2023-05-22T04:39:52.919Z,89.10
2023-05-22T04:42:20.520Z,93.97
2023-05-22T04:44:48.326Z,89.97
2023-05-22T04:47:15.488Z,87.85
2023-05-22T04:49:43.716Z,86.85
2023-05-22T04:52:11.658Z,85.88
2023-05-22T04:54:38.983Z,91.18
2023-05-22T04:57:06.276Z,86.53
2023-05-22T04:59:39.443Z,96.05
2023-05-22T05:02:06.885Z,97.10
2023-05-22T05:04:34.379Z,99.32
2023-05-22T05:07:02.457Z,103.90
2023-05-22T05:09:29.741Z,101.70
2023-05-22T05:11:56.960Z,94.80
2023-05-22T05:14:24.517Z,96.32
2023-05-22T05:16:51.927Z,96.65
2023-05-22T05:19:21.556Z,96.22
2023-05-22T05:21:49.424Z,84.35
2023-05-22T05:24:20.256Z,82.35
2023-05-22T05:26:48.455Z,91.68
2023-05-22T05:29:17.757Z,73.32
2023-05-22T05:31:54.687Z,82.95
2023-05-22T05:34:32.982Z,94.05
2023-05-22T05:37:03.340Z,86.47
2023-05-22T05:39:31.243Z,76.50
2023-05-22T05:42:00.858Z,89.22
2023-05-22T05:44:28.170Z,78.57
2023-05-22T05:46:55.313Z,89.30
2023-05-22T05:49:22.619Z,97.53
2023-05-22T05:51:50.370Z,89.47
2023-05-22T05:54:18.407Z,98.38
2023-05-22T05:56:46.514Z,89.28
2023-05-22T05:59:13.835Z,93.97
2023-05-22T06:02:01.036Z,81.70
2023-05-22T06:04:31.899Z,82.82
2023-05-22T06:06:58.935Z,83.88
2023-05-22T06:09:32.990Z,74.82
2023-05-22T06:12:13.016Z,79.13
2023-05-22T06:14:43.464Z,74.22
2023-05-22T06:17:10.530Z,73.53
2023-05-22T06:19:40.116Z,65.63
2023-05-22T06:22:08.276Z,74.85
2023-05-22T06:24:37.559Z,69.55
2023-05-22T06:27:11.152Z,71.22
2023-05-22T06:29:38.625Z,79.65
2023-05-22T06:32:06.628Z,70.63
2023-05-22T06:34:34.031Z,83.53
2023-05-22T06:37:03.778Z,70.80
2023-05-22T06:39:36.771Z,70.20
2023-05-22T06:42:11.241Z,71.22
2023-05-22T06:44:56.685Z,59.55
2023-05-22T06:47:28.248Z,56.22
2023-05-22T06:49:55.414Z,65.55
2023-05-22T06:52:22.659Z,68.03
2023-05-22T06:54:49.889Z,55.33
2023-05-22T06:57:16.914Z,62.25
2023-05-22T06:59:45.382Z,60.92
2023-05-22T07:02:26.443Z,64.18
2023-05-22T07:05:13.812Z,76.15
2023-05-22T07:07:51.117Z,61.10
2023-05-22T07:10:18.212Z,59.35
2023-05-22T07:12:46.015Z,53.58
2023-05-22T07:15:14.571Z,55.92
2023-05-22T07:17:47.473Z,50.58
2023-05-22T07:20:15.897Z,64.10
2023-05-22T07:22:49.071Z,53.17
2023-05-22T07:25:16.785Z,67.13
2023-05-22T07:27:43.949Z,51.53
2023-05-22T07:30:13.075Z,49.97
2023-05-22T07:32:41.511Z,39.40
2023-05-22T07:35:10.800Z,48.42
2023-05-22T07:37:38.437Z,47.75
2023-05-22T07:40:09.873Z,43.78
2023-05-22T07:42:38.243Z,46.83
2023-05-22T07:45:06.448Z,56.17
2023-05-22T07:47:34.023Z,46.13
2023-05-22T07:50:04.259Z,38.45
2023-05-22T07:52:32.904Z,32.70
2023-05-22T07:55:00.913Z,39.50
2023-05-22T07:57:29.928Z,41.97
2023-05-22T08:00:06.326Z,31.00
2023-05-22T08:02:43.051Z,38.88
2023-05-22T08:05:10.845Z,38.65
2023-05-22T08:07:38.141Z,29.15
2023-05-22T08:10:17.498Z,38.58
2023-05-22T08:12:44.727Z,49.33
2023-05-22T08:15:12.217Z,33.17
2023-05-22T08:17:39.521Z,55.35
2023-05-22T08:20:07.615Z,47.83
2023-05-22T08:22:35.860Z,52.03
2023-05-22T08:25:02.967Z,33.13
2023-05-22T08:27:29.980Z,41.75
2023-05-22T08:29:56.989Z,45.30
2023-05-22T08:32:24.078Z,47.72
2023-05-22T08:34:51.273Z,48.33
2023-05-22T08:37:18.330Z,37.55
2023-05-22T08:39:45.518Z,46.92
2023-05-22T08:42:12.688Z,40.88
2023-05-22T08:44:39.915Z,38.40
2023-05-22T08:47:11.271Z,32.40
2023-05-22T08:49:40.136Z,34.85
2023-05-22T08:52:14.675Z,40.55
2023-05-22T08:54:44.708Z,42.90
2023-05-22T08:57:12.092Z,35.10
2023-05-22T08:59:41.187Z,30.27
2023-05-22T09:02:09.016Z,34.53
2023-05-22T09:04:36.294Z,32.70
2023-05-22T09:07:06.038Z,39.40
2023-05-22T09:09:37.728Z,43.20
2023-05-22T09:12:09.700Z,40.15
2023-05-22T09:14:43.461Z,37.15
2023-05-22T09:17:14.789Z,36.00
2023-05-22T09:19:46.061Z,39.35
2023-05-22T09:22:14.443Z,43.10
2023-05-22T09:24:42.517Z,42.60
2023-05-22T09:27:11.071Z,36.80
2023-05-22T09:29:51.637Z,47.35
2023-05-22T09:32:19.214Z,39.78
2023-05-22T09:34:47.027Z,39.65
2023-05-22T09:37:14.957Z,35.22
2023-05-22T09:39:47.705Z,38.85
2023-05-22T09:42:18.144Z,40.35
2023-05-22T09:44:49.483Z,41.40
2023-05-22T09:47:17.364Z,41.78
2023-05-22T09:49:45.568Z,46.55
2023-05-22T09:52:13.088Z,38.45
2023-05-22T09:54:55.241Z,42.72
2023-05-22T09:57:25.113Z,44.55
2023-05-22T09:59:54.615Z,38.03
2023-05-22T10:02:24.223Z,27.20
2023-05-22T10:04:52.778Z,31.25
2023-05-22T10:07:23.188Z,46.15
2023-05-22T10:10:04.103Z,30.23
2023-05-22T10:12:33.954Z,35.90
2023-05-22T10:15:02.813Z,26.90
2023-05-22T10:17:30.718Z,36.47
2023-05-22T10:19:58.573Z,29.27
2023-05-22T10:22:29.180Z,40.13
2023-05-22T10:24:56.367Z,33.55
2023-05-22T10:27:23.378Z,34.33
2023-05-22T10:30:18.149Z,41.28
2023-05-22T10:33:12.282Z,35.92
2023-05-22T10:35:47.485Z,43.90
2023-05-22T10:38:57.597Z,46.60
2023-05-22T10:41:25.989Z,43.10
2023-05-22T10:43:56.861Z,37.50
2023-05-22T10:46:24.166Z,41.03
2023-05-22T10:48:53.256Z,35.70
2023-05-22T10:51:22.752Z,35.05
2023-05-22T10:53:58.005Z,37.53
2023-05-22T10:56:35.204Z,46.42
2023-05-22T10:59:05.426Z,42.72
2023-05-22T11:01:38.058Z,40.50
2023-05-22T11:04:19.496Z,40.15
2023-05-22T11:07:06.838Z,39.05
2023-05-22T11:09:55.120Z,40.92
2023-05-22T11:12:28.491Z,42.55
2023-05-22T11:15:05.865Z,42.50
2023-05-22T11:17:36.469Z,38.97
2023-05-22T11:20:18.623Z,36.03
2023-05-22T11:22:59.580Z,39.53
2023-05-22T11:25:28.258Z,49.88
2023-05-22T11:27:56.943Z,50.40
2023-05-22T11:30:30.601Z,42.83
2023-05-22T11:33:00.105Z,43.15
2023-05-22T11:35:28.284Z,38.50
2023-05-22T11:37:56.326Z,39.60
2023-05-22T11:40:25.776Z,40.15
2023-05-22T11:42:53.850Z,38.00
2023-05-22T11:45:21.731Z,40.90
2023-05-22T11:47:50.203Z,36.97
2023-05-22T11:50:29.345Z,39.58
2023-05-22T11:53:04.496Z,39.85
2023-05-22T11:55:33.615Z,35.90
2023-05-22T11:58:02.501Z,46.75
2023-05-22T12:00:31.172Z,36.20
2023-05-22T12:02:58.792Z,43.30
2023-05-22T12:05:25.975Z,44.53
2023-05-22T12:07:53.290Z,55.28
2023-05-22T12:10:20.450Z,41.55
2023-05-22T12:12:48.213Z,38.65
2023-05-22T12:15:20.469Z,37.92
2023-05-22T12:17:47.527Z,36.10
2023-05-22T12:20:14.643Z,38.17
2023-05-22T12:22:43.238Z,41.58
2023-05-22T12:25:16.862Z,35.85
2023-05-22T12:27:45.536Z,35.38
2023-05-22T12:30:13.643Z,34.50
2023-05-22T12:32:41.079Z,35.13
2023-05-22T12:35:15.921Z,39.78
2023-05-22T12:37:49.256Z,39.55
2023-05-22T12:40:16.320Z,38.78
2023-05-22T12:42:44.881Z,38.65
2023-05-22T12:45:13.291Z,33.42
2023-05-22T12:47:40.403Z,35.35
2023-05-22T12:50:08.535Z,32.28
2023-05-22T12:52:36.253Z,37.78
2023-05-22T12:55:03.537Z,31.50
2023-05-22T12:57:30.485Z,35.95
2023-05-22T12:59:57.554Z,28.42
2023-05-22T13:02:25.046Z,32.13
2023-05-22T13:04:52.139Z,29.27
2023-05-22T13:07:19.180Z,29.35
2023-05-22T13:09:46.311Z,25.55
2023-05-22T13:12:13.455Z,24.33
2023-05-22T13:14:40.887Z,26.75
2023-05-22T13:17:08.228Z,32.10
2023-05-22T13:19:35.340Z,23.17
2023-05-22T13:22:02.444Z,30.60
2023-05-22T13:24:30.482Z,19.83
2023-05-22T13:26:57.537Z,23.63
2023-05-22T13:29:24.531Z,18.05
2023-05-22T13:31:51.589Z,17.55
2023-05-22T13:34:18.862Z,29.25
2023-05-22T13:36:46.603Z,26.35
2023-05-22T13:39:13.628Z,18.08
2023-05-22T13:41:40.780Z,16.80
2023-05-22T13:44:07.849Z,23.02
2023-05-22T13:46:34.873Z,20.40
2023-05-22T13:49:01.878Z,24.35
2023-05-22T13:51:29.216Z,21.17
2023-05-22T13:53:56.076Z,17.25
2023-05-22T13:56:23.777Z,18.33
2023-05-22T13:58:50.631Z,27.27
2023-05-22T14:01:17.575Z,26.00
